sensor_id;sensor_type;location;lat;lon;timestamp;P1;durP1;ratioP1;P2;durP2;ratioP2
21754;SDS011;11039;50.028;19.938;2024-01-30T00:01:39;18.45;;;14.77;;
21754;SDS011;11039;50.028;19.938;2024-01-30T00:04:05;17.75;;;14.88;;
21754;SDS011;11039;50.028;19.938;2024-01-30T00:06:32;17.83;;;14.20;;
21754;SDS011;11039;50.028;19.938;2024-01-30T00:08:58;17.40;;;14.25;;
21754;SDS011;11039;50.028;19.938;2024-01-30T00:11:24;19.70;;;14.70;;
21754;SDS011;11039;50.028;19.938;2024-01-30T00:13:54;20.15;;;15.95;;
21754;SDS011;11039;50.028;19.938;2024-01-30T00:16:23;19.00;;;14.95;;
21754;SDS011;11039;50.028;19.938;2024-01-30T00:18:53;20.48;;;15.95;;
21754;SDS011;11039;50.028;19.938;2024-01-30T00:23:38;20.13;;;16.42;;
21754;SDS011;11039;50.028;19.938;2024-01-30T00:26:04;20.30;;;16.30;;
21754;SDS011;11039;50.028;19.938;2024-01-30T00:28:30;19.60;;;15.77;;
21754;SDS011;11039;50.028;19.938;2024-01-30T00:30:56;19.10;;;15.13;;
21754;SDS011;11039;50.028;19.938;2024-01-30T00:33:22;20.95;;;15.75;;
21754;SDS011;11039;50.028;19.938;2024-01-30T00:35:48;18.58;;;15.70;;
21754;SDS011;11039;50.028;19.938;2024-01-30T00:38:14;19.85;;;15.48;;
21754;SDS011;11039;50.028;19.938;2024-01-30T00:40:40;21.23;;;15.40;;
21754;SDS011;11039;50.028;19.938;2024-01-30T00:43:06;20.77;;;15.98;;
21754;SDS011;11039;50.028;19.938;2024-01-30T00:45:32;20.35;;;15.82;;
21754;SDS011;11039;50.028;19.938;2024-01-30T00:47:58;24.20;;;16.25;;
21754;SDS011;11039;50.028;19.938;2024-01-30T00:50:24;21.33;;;15.93;;
21754;SDS011;11039;50.028;19.938;2024-01-30T00:52:50;18.30;;;15.23;;
21754;SDS011;11039;50.028;19.938;2024-01-30T00:55:16;19.17;;;15.20;;
21754;SDS011;11039;50.028;19.938;2024-01-30T00:57:42;21.38;;;15.95;;
21754;SDS011;11039;50.028;19.938;2024-01-30T01:00:08;18.65;;;15.65;;
21754;SDS011;11039;50.028;19.938;2024-01-30T01:02:35;21.98;;;15.43;;
21754;SDS011;11039;50.028;19.938;2024-01-30T01:05:01;20.63;;;15.75;;
21754;SDS011;11039;50.028;19.938;2024-01-30T01:07:27;20.20;;;14.90;;
21754;SDS011;11039;50.028;19.938;2024-01-30T01:09:53;20.55;;;16.45;;
21754;SDS011;11039;50.028;19.938;2024-01-30T01:12:19;20.25;;;16.15;;
21754;SDS011;11039;50.028;19.938;2024-01-30T01:14:45;22.23;;;15.95;;
21754;SDS011;11039;50.028;19.938;2024-01-30T01:17:12;19.58;;;15.70;;
21754;SDS011;11039;50.028;19.938;2024-01-30T01:19:38;18.67;;;15.45;;
21754;SDS011;11039;50.028;19.938;2024-01-30T01:22:04;19.38;;;15.70;;
21754;SDS011;11039;50.028;19.938;2024-01-30T01:24:33;19.08;;;15.85;;
21754;SDS011;11039;50.028;19.938;2024-01-30T01:26:59;21.33;;;16.25;;
21754;SDS011;11039;50.028;19.938;2024-01-30T01:29:25;20.25;;;16.13;;
21754;SDS011;11039;50.028;19.938;2024-01-30T01:31:56;20.70;;;16.05;;
21754;SDS011;11039;50.028;19.938;2024-01-30T01:34:23;21.83;;;16.25;;
21754;SDS011;11039;50.028;19.938;2024-01-30T01:36:49;19.50;;;16.33;;
21754;SDS011;11039;50.028;19.938;2024-01-30T01:39:15;22.15;;;16.45;;
21754;SDS011;11039;50.028;19.938;2024-01-30T01:41:41;20.90;;;16.42;;
21754;SDS011;11039;50.028;19.938;2024-01-30T01:44:08;19.35;;;15.90;;
21754;SDS011;11039;50.028;19.938;2024-01-30T01:46:34;21.05;;;16.52;;
21754;SDS011;11039;50.028;19.938;2024-01-30T01:49:00;21.58;;;16.58;;
21754;SDS011;11039;50.028;19.938;2024-01-30T01:51:28;21.70;;;16.67;;
21754;SDS011;11039;50.028;19.938;2024-01-30T01:53:55;22.02;;;16.70;;
21754;SDS011;11039;50.028;19.938;2024-01-30T01:56:21;20.77;;;17.70;;
21754;SDS011;11039;50.028;19.938;2024-01-30T01:58:48;24.17;;;17.30;;
21754;SDS011;11039;50.028;19.938;2024-01-30T02:01:16;20.75;;;16.52;;
21754;SDS011;11039;50.028;19.938;2024-01-30T02:03:42;18.35;;;15.63;;
21754;SDS011;11039;50.028;19.938;2024-01-30T02:06:08;20.90;;;17.00;;
21754;SDS011;11039;50.028;19.938;2024-01-30T02:08:34;21.58;;;16.75;;
21754;SDS011;11039;50.028;19.938;2024-01-30T02:11:02;21.92;;;16.75;;
21754;SDS011;11039;50.028;19.938;2024-01-30T02:13:28;21.27;;;17.50;;
21754;SDS011;11039;50.028;19.938;2024-01-30T02:15:54;20.35;;;16.67;;
21754;SDS011;11039;50.028;19.938;2024-01-30T02:18:20;21.55;;;15.88;;
21754;SDS011;11039;50.028;19.938;2024-01-30T02:20:49;21.15;;;17.00;;
21754;SDS011;11039;50.028;19.938;2024-01-30T02:23:18;21.90;;;17.52;;
21754;SDS011;11039;50.028;19.938;2024-01-30T02:25:45;22.20;;;17.98;;
21754;SDS011;11039;50.028;19.938;2024-01-30T02:28:11;19.80;;;16.73;;
21754;SDS011;11039;50.028;19.938;2024-01-30T02:30:40;22.35;;;17.67;;
21754;SDS011;11039;50.028;19.938;2024-01-30T02:33:06;18.35;;;16.25;;
21754;SDS011;11039;50.028;19.938;2024-01-30T02:35:32;20.45;;;17.27;;
21754;SDS011;11039;50.028;19.938;2024-01-30T02:37:59;18.98;;;16.20;;
21754;SDS011;11039;50.028;19.938;2024-01-30T02:40:25;23.92;;;16.05;;
21754;SDS011;11039;50.028;19.938;2024-01-30T02:42:51;20.42;;;17.20;;
21754;SDS011;11039;50.028;19.938;2024-01-30T02:45:17;20.25;;;16.65;;
21754;SDS011;11039;50.028;19.938;2024-01-30T02:47:43;19.83;;;16.33;;
21754;SDS011;11039;50.028;19.938;2024-01-30T02:50:09;25.73;;;17.63;;
21754;SDS011;11039;50.028;19.938;2024-01-30T02:52:35;20.83;;;16.70;;
21754;SDS011;11039;50.028;19.938;2024-01-30T02:55:01;21.60;;;17.00;;
21754;SDS011;11039;50.028;19.938;2024-01-30T02:57:28;20.05;;;17.05;;
21754;SDS011;11039;50.028;19.938;2024-01-30T02:59:54;21.35;;;16.98;;
21754;SDS011;11039;50.028;19.938;2024-01-30T03:02:20;20.33;;;16.42;;
21754;SDS011;11039;50.028;19.938;2024-01-30T03:04:47;18.08;;;15.80;;
21754;SDS011;11039;50.028;19.938;2024-01-30T03:07:13;21.60;;;16.35;;
21754;SDS011;11039;50.028;19.938;2024-01-30T03:09:40;21.42;;;16.23;;
21754;SDS011;11039;50.028;19.938;2024-01-30T03:12:07;21.67;;;17.30;;
21754;SDS011;11039;50.028;19.938;2024-01-30T03:14:33;20.25;;;16.45;;
21754;SDS011;11039;50.028;19.938;2024-01-30T03:16:59;20.58;;;16.48;;
21754;SDS011;11039;50.028;19.938;2024-01-30T03:21:42;20.52;;;15.98;;
21754;SDS011;11039;50.028;19.938;2024-01-30T03:24:08;21.45;;;17.38;;
21754;SDS011;11039;50.028;19.938;2024-01-30T03:26:34;21.20;;;17.27;;
21754;SDS011;11039;50.028;19.938;2024-01-30T03:29:00;21.50;;;17.48;;
21754;SDS011;11039;50.028;19.938;2024-01-30T03:31:27;20.70;;;16.75;;
21754;SDS011;11039;50.028;19.938;2024-01-30T03:33:53;20.67;;;15.93;;
21754;SDS011;11039;50.028;19.938;2024-01-30T03:36:19;20.90;;;16.55;;
21754;SDS011;11039;50.028;19.938;2024-01-30T03:38:45;20.33;;;17.00;;
21754;SDS011;11039;50.028;19.938;2024-01-30T03:41:11;21.65;;;16.42;;
21754;SDS011;11039;50.028;19.938;2024-01-30T03:43:37;20.60;;;16.67;;
21754;SDS011;11039;50.028;19.938;2024-01-30T03:46:03;21.08;;;16.80;;
21754;SDS011;11039;50.028;19.938;2024-01-30T03:48:30;20.80;;;17.38;;
21754;SDS011;11039;50.028;19.938;2024-01-30T03:50:56;20.65;;;16.33;;
21754;SDS011;11039;50.028;19.938;2024-01-30T03:53:22;21.65;;;17.30;;
21754;SDS011;11039;50.028;19.938;2024-01-30T03:55:48;22.25;;;17.27;;
21754;SDS011;11039;50.028;19.938;2024-01-30T03:58:14;17.90;;;15.02;;
21754;SDS011;11039;50.028;19.938;2024-01-30T04:00:40;21.75;;;16.65;;
21754;SDS011;11039;50.028;19.938;2024-01-30T04:03:06;19.60;;;15.88;;
21754;SDS011;11039;50.028;19.938;2024-01-30T04:05:32;18.30;;;15.88;;
21754;SDS011;11039;50.028;19.938;2024-01-30T04:07:58;20.83;;;16.58;;
21754;SDS011;11039;50.028;19.938;2024-01-30T04:10:24;20.42;;;16.77;;
21754;SDS011;11039;50.028;19.938;2024-01-30T04:12:50;21.23;;;15.95;;
21754;SDS011;11039;50.028;19.938;2024-01-30T04:15:17;20.63;;;16.75;;
21754;SDS011;11039;50.028;19.938;2024-01-30T04:20:00;19.30;;;16.23;;
21754;SDS011;11039;50.028;19.938;2024-01-30T04:24:45;20.38;;;16.92;;
21754;SDS011;11039;50.028;19.938;2024-01-30T04:27:11;20.63;;;16.08;;
21754;SDS011;11039;50.028;19.938;2024-01-30T04:29:37;19.55;;;15.60;;
21754;SDS011;11039;50.028;19.938;2024-01-30T04:34:21;19.77;;;15.27;;
21754;SDS011;11039;50.028;19.938;2024-01-30T04:36:47;20.55;;;16.83;;
21754;SDS011;11039;50.028;19.938;2024-01-30T04:39:13;19.45;;;16.63;;
21754;SDS011;11039;50.028;19.938;2024-01-30T04:41:39;18.63;;;15.98;;
21754;SDS011;11039;50.028;19.938;2024-01-30T04:44:05;19.73;;;16.42;;
21754;SDS011;11039;50.028;19.938;2024-01-30T04:46:31;20.52;;;16.25;;
21754;SDS011;11039;50.028;19.938;2024-01-30T04:48:59;20.38;;;16.52;;
21754;SDS011;11039;50.028;19.938;2024-01-30T04:51:25;20.13;;;16.30;;
21754;SDS011;11039;50.028;19.938;2024-01-30T04:53:51;22.35;;;16.50;;
21754;SDS011;11039;50.028;19.938;2024-01-30T04:56:17;19.50;;;15.45;;
21754;SDS011;11039;50.028;19.938;2024-01-30T05:01:00;21.38;;;16.98;;
21754;SDS011;11039;50.028;19.938;2024-01-30T05:03:26;20.05;;;15.85;;
21754;SDS011;11039;50.028;19.938;2024-01-30T05:05:52;20.20;;;15.98;;
21754;SDS011;11039;50.028;19.938;2024-01-30T05:08:18;19.90;;;16.17;;
21754;SDS011;11039;50.028;19.938;2024-01-30T05:10:44;18.70;;;16.27;;
21754;SDS011;11039;50.028;19.938;2024-01-30T05:13:11;20.55;;;16.10;;
21754;SDS011;11039;50.028;19.938;2024-01-30T05:15:38;22.20;;;16.70;;
21754;SDS011;11039;50.028;19.938;2024-01-30T05:18:04;19.98;;;16.02;;
21754;SDS011;11039;50.028;19.938;2024-01-30T05:20:30;20.15;;;16.50;;
21754;SDS011;11039;50.028;19.938;2024-01-30T05:22:56;19.40;;;15.73;;
21754;SDS011;11039;50.028;19.938;2024-01-30T05:25:22;20.30;;;15.68;;
21754;SDS011;11039;50.028;19.938;2024-01-30T05:27:49;19.20;;;15.32;;
21754;SDS011;11039;50.028;19.938;2024-01-30T05:30:15;21.58;;;17.10;;
21754;SDS011;11039;50.028;19.938;2024-01-30T05:32:41;19.27;;;15.88;;
21754;SDS011;11039;50.028;19.938;2024-01-30T05:35:07;19.92;;;15.98;;
21754;SDS011;11039;50.028;19.938;2024-01-30T05:37:33;21.38;;;15.05;;
21754;SDS011;11039;50.028;19.938;2024-01-30T05:39:59;18.23;;;15.30;;
21754;SDS011;11039;50.028;19.938;2024-01-30T05:42:26;19.67;;;16.40;;
21754;SDS011;11039;50.028;19.938;2024-01-30T05:44:52;19.08;;;16.38;;
21754;SDS011;11039;50.028;19.938;2024-01-30T05:47:18;19.95;;;15.68;;
21754;SDS011;11039;50.028;19.938;2024-01-30T05:49:44;19.98;;;16.67;;
21754;SDS011;11039;50.028;19.938;2024-01-30T05:52:10;19.40;;;15.38;;
21754;SDS011;11039;50.028;19.938;2024-01-30T05:56:54;21.67;;;16.33;;
21754;SDS011;11039;50.028;19.938;2024-01-30T05:59:20;18.42;;;15.75;;
21754;SDS011;11039;50.028;19.938;2024-01-30T06:01:46;18.55;;;15.77;;
21754;SDS011;11039;50.028;19.938;2024-01-30T06:04:12;19.35;;;16.00;;
21754;SDS011;11039;50.028;19.938;2024-01-30T06:06:39;20.10;;;16.45;;
21754;SDS011;11039;50.028;19.938;2024-01-30T06:09:05;20.70;;;15.93;;
21754;SDS011;11039;50.028;19.938;2024-01-30T06:11:33;19.80;;;15.63;;
21754;SDS011;11039;50.028;19.938;2024-01-30T06:13:59;24.60;;;15.85;;
21754;SDS011;11039;50.028;19.938;2024-01-30T06:16:25;20.15;;;16.15;;
21754;SDS011;11039;50.028;19.938;2024-01-30T06:18:54;17.50;;;14.82;;
21754;SDS011;11039;50.028;19.938;2024-01-30T06:21:20;19.10;;;15.32;;
21754;SDS011;11039;50.028;19.938;2024-01-30T06:23:46;16.98;;;14.77;;
21754;SDS011;11039;50.028;19.938;2024-01-30T06:26:12;20.13;;;16.33;;
21754;SDS011;11039;50.028;19.938;2024-01-30T06:30:56;18.90;;;15.57;;
21754;SDS011;11039;50.028;19.938;2024-01-30T06:35:40;19.85;;;15.63;;
21754;SDS011;11039;50.028;19.938;2024-01-30T06:38:06;20.20;;;15.55;;
21754;SDS011;11039;50.028;19.938;2024-01-30T06:40:32;19.23;;;14.98;;
21754;SDS011;11039;50.028;19.938;2024-01-30T06:42:58;22.52;;;15.65;;
21754;SDS011;11039;50.028;19.938;2024-01-30T06:45:24;21.42;;;15.65;;
21754;SDS011;11039;50.028;19.938;2024-01-30T06:47:50;21.25;;;15.70;;
21754;SDS011;11039;50.028;19.938;2024-01-30T06:50:16;18.77;;;15.50;;
21754;SDS011;11039;50.028;19.938;2024-01-30T06:55:01;21.10;;;15.38;;
21754;SDS011;11039;50.028;19.938;2024-01-30T06:57:28;19.13;;;15.48;;
21754;SDS011;11039;50.028;19.938;2024-01-30T06:59:55;18.50;;;15.05;;
21754;SDS011;11039;50.028;19.938;2024-01-30T07:02:21;20.20;;;14.68;;
21754;SDS011;11039;50.028;19.938;2024-01-30T07:04:47;18.73;;;14.73;;
21754;SDS011;11039;50.028;19.938;2024-01-30T07:07:14;18.33;;;14.85;;
21754;SDS011;11039;50.028;19.938;2024-01-30T07:09:40;19.38;;;14.98;;
21754;SDS011;11039;50.028;19.938;2024-01-30T07:14:24;20.75;;;15.13;;
21754;SDS011;11039;50.028;19.938;2024-01-30T07:16:50;20.00;;;15.88;;
21754;SDS011;11039;50.028;19.938;2024-01-30T07:23:56;19.00;;;15.02;;
21754;SDS011;11039;50.028;19.938;2024-01-30T07:26:22;18.83;;;15.00;;
21754;SDS011;11039;50.028;19.938;2024-01-30T07:28:48;20.08;;;15.73;;
21754;SDS011;11039;50.028;19.938;2024-01-30T07:31:15;19.40;;;15.45;;
21754;SDS011;11039;50.028;19.938;2024-01-30T07:33:41;18.98;;;14.48;;
21754;SDS011;11039;50.028;19.938;2024-01-30T07:36:07;20.75;;;15.38;;
21754;SDS011;11039;50.028;19.938;2024-01-30T07:38:33;19.05;;;14.00;;
21754;SDS011;11039;50.028;19.938;2024-01-30T07:40:59;18.75;;;14.43;;
21754;SDS011;11039;50.028;19.938;2024-01-30T07:43:25;20.02;;;13.63;;
21754;SDS011;11039;50.028;19.938;2024-01-30T07:45:51;20.73;;;14.25;;
21754;SDS011;11039;50.028;19.938;2024-01-30T07:48:17;18.50;;;14.85;;
21754;SDS011;11039;50.028;19.938;2024-01-30T07:50:43;18.02;;;14.02;;
21754;SDS011;11039;50.028;19.938;2024-01-30T07:53:09;19.35;;;14.80;;
21754;SDS011;11039;50.028;19.938;2024-01-30T07:55:35;21.02;;;15.18;;
21754;SDS011;11039;50.028;19.938;2024-01-30T07:58:01;19.83;;;14.77;;
21754;SDS011;11039;50.028;19.938;2024-01-30T08:00:29;19.15;;;15.20;;
21754;SDS011;11039;50.028;19.938;2024-01-30T08:02:55;17.55;;;14.60;;
21754;SDS011;11039;50.028;19.938;2024-01-30T08:05:22;18.75;;;14.80;;
21754;SDS011;11039;50.028;19.938;2024-01-30T08:10:07;20.15;;;15.50;;
21754;SDS011;11039;50.028;19.938;2024-01-30T08:12:33;20.23;;;14.82;;
21754;SDS011;11039;50.028;19.938;2024-01-30T08:14:59;21.27;;;15.50;;
21754;SDS011;11039;50.028;19.938;2024-01-30T08:17:25;19.80;;;15.23;;
21754;SDS011;11039;50.028;19.938;2024-01-30T08:19:51;19.85;;;14.75;;
21754;SDS011;11039;50.028;19.938;2024-01-30T08:22:17;19.98;;;14.82;;
21754;SDS011;11039;50.028;19.938;2024-01-30T08:24:43;20.65;;;14.73;;
21754;SDS011;11039;50.028;19.938;2024-01-30T08:27:09;19.17;;;15.77;;
21754;SDS011;11039;50.028;19.938;2024-01-30T08:29:35;20.08;;;15.80;;
21754;SDS011;11039;50.028;19.938;2024-01-30T08:32:01;21.90;;;15.65;;
21754;SDS011;11039;50.028;19.938;2024-01-30T08:34:27;20.88;;;15.48;;
21754;SDS011;11039;50.028;19.938;2024-01-30T08:36:53;21.83;;;16.10;;
21754;SDS011;11039;50.028;19.938;2024-01-30T08:39:19;21.48;;;16.65;;
21754;SDS011;11039;50.028;19.938;2024-01-30T08:41:45;21.67;;;16.15;;
21754;SDS011;11039;50.028;19.938;2024-01-30T08:44:11;22.20;;;15.82;;
21754;SDS011;11039;50.028;19.938;2024-01-30T08:46:37;23.42;;;16.20;;
21754;SDS011;11039;50.028;19.938;2024-01-30T08:49:03;21.45;;;15.57;;
21754;SDS011;11039;50.028;19.938;2024-01-30T08:51:30;19.90;;;15.82;;
21754;SDS011;11039;50.028;19.938;2024-01-30T08:53:56;22.10;;;16.58;;
21754;SDS011;11039;50.028;19.938;2024-01-30T08:56:22;21.98;;;16.95;;
21754;SDS011;11039;50.028;19.938;2024-01-30T08:58:48;20.63;;;17.02;;
21754;SDS011;11039;50.028;19.938;2024-01-30T09:01:14;20.23;;;16.25;;
21754;SDS011;11039;50.028;19.938;2024-01-30T09:03:40;21.27;;;16.58;;
21754;SDS011;11039;50.028;19.938;2024-01-30T09:06:08;22.13;;;17.05;;
21754;SDS011;11039;50.028;19.938;2024-01-30T09:08:35;29.52;;;22.60;;
21754;SDS011;11039;50.028;19.938;2024-01-30T09:11:01;12.65;;;10.60;;
21754;SDS011;11039;50.028;19.938;2024-01-30T09:13:30;12.25;;;9.40;;
21754;SDS011;11039;50.028;19.938;2024-01-30T09:15:56;14.07;;;10.32;;
21754;SDS011;11039;50.028;19.938;2024-01-30T09:18:22;13.15;;;9.50;;
21754;SDS011;11039;50.028;19.938;2024-01-30T09:20:48;16.67;;;11.52;;
21754;SDS011;11039;50.028;19.938;2024-01-30T09:23:14;14.98;;;10.90;;
21754;SDS011;11039;50.028;19.938;2024-01-30T09:25:40;14.80;;;9.93;;
21754;SDS011;11039;50.028;19.938;2024-01-30T09:28:06;12.02;;;9.48;;
21754;SDS011;11039;50.028;19.938;2024-01-30T09:30:32;12.18;;;9.45;;
21754;SDS011;11039;50.028;19.938;2024-01-30T09:32:58;12.00;;;8.65;;
21754;SDS011;11039;50.028;19.938;2024-01-30T09:35:24;12.45;;;9.30;;
21754;SDS011;11039;50.028;19.938;2024-01-30T09:37:50;11.35;;;8.25;;
21754;SDS011;11039;50.028;19.938;2024-01-30T09:40:17;10.73;;;7.18;;
21754;SDS011;11039;50.028;19.938;2024-01-30T09:42:46;9.60;;;7.32;;
21754;SDS011;11039;50.028;19.938;2024-01-30T09:45:14;11.75;;;7.95;;
21754;SDS011;11039;50.028;19.938;2024-01-30T09:47:41;7.68;;;6.57;;
21754;SDS011;11039;50.028;19.938;2024-01-30T09:50:10;10.02;;;6.97;;
21754;SDS011;11039;50.028;19.938;2024-01-30T09:52:36;7.80;;;5.97;;
21754;SDS011;11039;50.028;19.938;2024-01-30T09:55:03;7.68;;;6.35;;
21754;SDS011;11039;50.028;19.938;2024-01-30T09:57:29;9.52;;;7.35;;
21754;SDS011;11039;50.028;19.938;2024-01-30T09:59:55;7.60;;;6.10;;
21754;SDS011;11039;50.028;19.938;2024-01-30T10:02:21;7.93;;;6.32;;
21754;SDS011;11039;50.028;19.938;2024-01-30T10:04:51;7.13;;;5.88;;
21754;SDS011;11039;50.028;19.938;2024-01-30T10:07:17;8.23;;;6.47;;
21754;SDS011;11039;50.028;19.938;2024-01-30T10:09:44;9.27;;;6.60;;
21754;SDS011;11039;50.028;19.938;2024-01-30T10:12:11;8.65;;;6.40;;
21754;SDS011;11039;50.028;19.938;2024-01-30T10:16:57;8.52;;;5.95;;
21754;SDS011;11039;50.028;19.938;2024-01-30T10:19:23;7.70;;;6.30;;
21754;SDS011;11039;50.028;19.938;2024-01-30T10:21:49;6.35;;;5.65;;
21754;SDS011;11039;50.028;19.938;2024-01-30T10:24:15;8.57;;;5.68;;
21754;SDS011;11039;50.028;19.938;2024-01-30T10:26:43;6.53;;;5.43;;
21754;SDS011;11039;50.028;19.938;2024-01-30T10:31:29;6.07;;;4.82;;
21754;SDS011;11039;50.028;19.938;2024-01-30T10:33:55;6.60;;;5.18;;
21754;SDS011;11039;50.028;19.938;2024-01-30T10:36:21;6.10;;;5.00;;
21754;SDS011;11039;50.028;19.938;2024-01-30T10:38:50;5.20;;;4.53;;
21754;SDS011;11039;50.028;19.938;2024-01-30T10:41:17;5.93;;;4.95;;
21754;SDS011;11039;50.028;19.938;2024-01-30T10:43:47;5.70;;;5.07;;
21754;SDS011;11039;50.028;19.938;2024-01-30T10:46:18;7.68;;;5.97;;
21754;SDS011;11039;50.028;19.938;2024-01-30T10:48:45;5.25;;;4.20;;
21754;SDS011;11039;50.028;19.938;2024-01-30T10:51:14;6.25;;;5.28;;
21754;SDS011;11039;50.028;19.938;2024-01-30T10:53:40;8.13;;;5.35;;
21754;SDS011;11039;50.028;19.938;2024-01-30T10:56:07;6.43;;;5.32;;
21754;SDS011;11039;50.028;19.938;2024-01-30T10:58:33;4.97;;;4.22;;
21754;SDS011;11039;50.028;19.938;2024-01-30T11:00:59;7.28;;;4.70;;
21754;SDS011;11039;50.028;19.938;2024-01-30T11:03:26;6.05;;;4.57;;
21754;SDS011;11039;50.028;19.938;2024-01-30T11:05:52;5.25;;;4.13;;
21754;SDS011;11039;50.028;19.938;2024-01-30T11:08:25;4.72;;;3.90;;
21754;SDS011;11039;50.028;19.938;2024-01-30T11:10:56;5.63;;;4.28;;
21754;SDS011;11039;50.028;19.938;2024-01-30T11:13:26;4.60;;;4.15;;
21754;SDS011;11039;50.028;19.938;2024-01-30T11:15:53;4.85;;;4.10;;
21754;SDS011;11039;50.028;19.938;2024-01-30T11:18:22;5.45;;;4.05;;
21754;SDS011;11039;50.028;19.938;2024-01-30T11:23:08;4.55;;;3.72;;
21754;SDS011;11039;50.028;19.938;2024-01-30T11:25:37;4.55;;;4.05;;
21754;SDS011;11039;50.028;19.938;2024-01-30T11:33:01;4.65;;;4.25;;
21754;SDS011;11039;50.028;19.938;2024-01-30T11:35:29;4.43;;;4.03;;
21754;SDS011;11039;50.028;19.938;2024-01-30T11:37:56;4.07;;;3.63;;
21754;SDS011;11039;50.028;19.938;2024-01-30T11:40:23;4.20;;;3.65;;
21754;SDS011;11039;50.028;19.938;2024-01-30T11:42:51;4.07;;;3.67;;
21754;SDS011;11039;50.028;19.938;2024-01-30T11:45:17;4.13;;;3.65;;
21754;SDS011;11039;50.028;19.938;2024-01-30T11:47:43;4.30;;;3.67;;
21754;SDS011;11039;50.028;19.938;2024-01-30T11:50:09;4.78;;;3.72;;
21754;SDS011;11039;50.028;19.938;2024-01-30T11:52:35;3.75;;;3.40;;
21754;SDS011;11039;50.028;19.938;2024-01-30T11:55:02;4.32;;;3.65;;
21754;SDS011;11039;50.028;19.938;2024-01-30T11:57:28;4.40;;;3.70;;
21754;SDS011;11039;50.028;19.938;2024-01-30T11:59:55;3.92;;;3.42;;
21754;SDS011;11039;50.028;19.938;2024-01-30T12:02:21;4.18;;;3.25;;
21754;SDS011;11039;50.028;19.938;2024-01-30T12:04:47;4.22;;;3.30;;
21754;SDS011;11039;50.028;19.938;2024-01-30T12:07:13;3.60;;;2.97;;
21754;SDS011;11039;50.028;19.938;2024-01-30T12:09:42;4.55;;;3.60;;
21754;SDS011;11039;50.028;19.938;2024-01-30T12:12:08;4.07;;;3.33;;
21754;SDS011;11039;50.028;19.938;2024-01-30T12:14:38;3.50;;;2.90;;
21754;SDS011;11039;50.028;19.938;2024-01-30T12:17:05;4.40;;;3.40;;
21754;SDS011;11039;50.028;19.938;2024-01-30T12:19:32;4.68;;;3.60;;
21754;SDS011;11039;50.028;19.938;2024-01-30T12:24:16;4.68;;;3.08;;
21754;SDS011;11039;50.028;19.938;2024-01-30T12:26:42;3.70;;;3.40;;
21754;SDS011;11039;50.028;19.938;2024-01-30T12:29:08;4.22;;;3.00;;
21754;SDS011;11039;50.028;19.938;2024-01-30T12:31:34;3.75;;;3.22;;
21754;SDS011;11039;50.028;19.938;2024-01-30T12:34:01;3.40;;;3.10;;
21754;SDS011;11039;50.028;19.938;2024-01-30T12:36:28;3.78;;;3.38;;
21754;SDS011;11039;50.028;19.938;2024-01-30T12:38:56;4.32;;;3.60;;
21754;SDS011;11039;50.028;19.938;2024-01-30T12:41:23;3.22;;;2.90;;
21754;SDS011;11039;50.028;19.938;2024-01-30T12:43:53;3.88;;;2.97;;
21754;SDS011;11039;50.028;19.938;2024-01-30T12:46:19;3.20;;;2.90;;
21754;SDS011;11039;50.028;19.938;2024-01-30T12:48:45;3.20;;;2.90;;
21754;SDS011;11039;50.028;19.938;2024-01-30T12:51:11;3.75;;;2.80;;
21754;SDS011;11039;50.028;19.938;2024-01-30T12:55:56;2.95;;;2.65;;
21754;SDS011;11039;50.028;19.938;2024-01-30T12:58:22;3.55;;;2.90;;
21754;SDS011;11039;50.028;19.938;2024-01-30T13:00:48;4.15;;;2.67;;
21754;SDS011;11039;50.028;19.938;2024-01-30T13:03:14;2.83;;;2.47;;
21754;SDS011;11039;50.028;19.938;2024-01-30T13:05:40;3.38;;;3.08;;
21754;SDS011;11039;50.028;19.938;2024-01-30T13:08:06;3.10;;;2.80;;
21754;SDS011;11039;50.028;19.938;2024-01-30T13:10:32;3.70;;;2.70;;
21754;SDS011;11039;50.028;19.938;2024-01-30T13:12:58;3.25;;;2.78;;
21754;SDS011;11039;50.028;19.938;2024-01-30T13:15:24;3.22;;;2.65;;
21754;SDS011;11039;50.028;19.938;2024-01-30T13:17:50;3.25;;;2.78;;
21754;SDS011;11039;50.028;19.938;2024-01-30T13:20:19;3.47;;;2.80;;
21754;SDS011;11039;50.028;19.938;2024-01-30T13:22:48;4.00;;;3.05;;
21754;SDS011;11039;50.028;19.938;2024-01-30T13:25:15;4.07;;;3.03;;
21754;SDS011;11039;50.028;19.938;2024-01-30T13:27:41;3.17;;;2.60;;
21754;SDS011;11039;50.028;19.938;2024-01-30T13:30:08;3.30;;;3.00;;
21754;SDS011;11039;50.028;19.938;2024-01-30T13:32:34;3.95;;;2.75;;
21754;SDS011;11039;50.028;19.938;2024-01-30T13:35:00;13.65;;;9.68;;
21754;SDS011;11039;50.028;19.938;2024-01-30T13:37:27;21.67;;;14.70;;
21754;SDS011;11039;50.028;19.938;2024-01-30T13:39:53;19.38;;;15.05;;
21754;SDS011;11039;50.028;19.938;2024-01-30T13:42:19;19.50;;;15.70;;
21754;SDS011;11039;50.028;19.938;2024-01-30T13:44:45;23.48;;;15.82;;
21754;SDS011;11039;50.028;19.938;2024-01-30T13:47:11;23.83;;;16.50;;
21754;SDS011;11039;50.028;19.938;2024-01-30T13:49:37;26.42;;;18.13;;
21754;SDS011;11039;50.028;19.938;2024-01-30T13:54:20;25.45;;;17.45;;
21754;SDS011;11039;50.028;19.938;2024-01-30T13:56:46;28.38;;;17.33;;
21754;SDS011;11039;50.028;19.938;2024-01-30T13:59:12;25.73;;;18.23;;
21754;SDS011;11039;50.028;19.938;2024-01-30T14:01:38;26.65;;;18.30;;
21754;SDS011;11039;50.028;19.938;2024-01-30T14:04:05;24.92;;;16.83;;
21754;SDS011;11039;50.028;19.938;2024-01-30T14:06:31;19.27;;;12.88;;
21754;SDS011;11039;50.028;19.938;2024-01-30T14:08:57;10.65;;;8.43;;
21754;SDS011;11039;50.028;19.938;2024-01-30T14:11:23;8.02;;;6.63;;
21754;SDS011;11039;50.028;19.938;2024-01-30T14:13:49;8.45;;;6.72;;
21754;SDS011;11039;50.028;19.938;2024-01-30T14:16:15;8.75;;;6.35;;
21754;SDS011;11039;50.028;19.938;2024-01-30T14:18:41;11.23;;;7.35;;
21754;SDS011;11039;50.028;19.938;2024-01-30T14:21:07;10.63;;;6.75;;
21754;SDS011;11039;50.028;19.938;2024-01-30T14:23:33;9.85;;;7.25;;
21754;SDS011;11039;50.028;19.938;2024-01-30T14:26:00;9.35;;;6.55;;
21754;SDS011;11039;50.028;19.938;2024-01-30T14:28:26;7.25;;;6.03;;
21754;SDS011;11039;50.028;19.938;2024-01-30T14:30:52;7.88;;;6.60;;
21754;SDS011;11039;50.028;19.938;2024-01-30T14:33:18;6.72;;;5.70;;
21754;SDS011;11039;50.028;19.938;2024-01-30T14:35:44;7.55;;;5.53;;
21754;SDS011;11039;50.028;19.938;2024-01-30T14:38:10;7.53;;;6.10;;
21754;SDS011;11039;50.028;19.938;2024-01-30T14:40:37;6.57;;;5.10;;
21754;SDS011;11039;50.028;19.938;2024-01-30T14:43:03;7.43;;;5.20;;
21754;SDS011;11039;50.028;19.938;2024-01-30T14:45:29;5.75;;;4.95;;
21754;SDS011;11039;50.028;19.938;2024-01-30T14:47:56;6.53;;;4.82;;
21754;SDS011;11039;50.028;19.938;2024-01-30T14:50:22;6.00;;;4.70;;
21754;SDS011;11039;50.028;19.938;2024-01-30T14:52:49;5.97;;;4.35;;
21754;SDS011;11039;50.028;19.938;2024-01-30T14:55:14;5.95;;;4.88;;
21754;SDS011;11039;50.028;19.938;2024-01-30T14:57:40;4.32;;;3.92;;
21754;SDS011;11039;50.028;19.938;2024-01-30T15:00:08;5.18;;;4.55;;
21754;SDS011;11039;50.028;19.938;2024-01-30T15:02:34;5.00;;;4.30;;